メインページ
METAR-TAF:

METAR-TAF

空港 :

ランセリア国際空港

ランセリア, 南アフリカ共和国

緯度: 25-56S, 経度: 027-56E, 海抜: 1377m

現時点の気象観測

当レポートは32分前の05:00(UTC)に作成
無風
気温 7°C
湿度 76%
気圧 1028 hPa
視程: 9000m

METAR: FALA 260500Z 00000KT 9000 NSC 07/03 Q1028 NOSIG

時間: 07:32 (05:32 UTC)

予報

当レポートは7時間32分前の22:00(UTC)に作成
予報は26日の 00時(UTC)から 26日の 24時(UTC)まで有効
変向風 3kt
視程10km以上
1,500メートル以下は雲なし、積乱雲なし
26日の 10時(UTC)から 26日の 12時(UTC)まで徐々に
南/南西の風 8kt
26日の 16時(UTC)から 26日の 18時(UTC)まで徐々に
変向風 3kt

TAF: FALA 252200Z 2600/2624 VRB03KT CAVOK TX24/2612Z TN07/2604Z BECMG 2610/2612 20008KT BECMG 2616/2618 VRB03KT

4,000以上の空港の気象観測と天気予報(METAR報とTAF報)

利用可能な観測所は地図上に黄色い丸と赤い丸で示す。

丸の上にカーソルを重ねると観測所名を参照できる。

次にクリックすると気象観測と天気予報を参照できる。

マップの切り替え:黒色「×」印の緑ボタンをクリックして拡大、「-」印の緑ボタンをクリックして縮小、緑色の三角印をクリックして隣りの地図に切り替え


METAR-TAF: